Time;durP1;ratioP1;P1;durP2;ratioP2;P2;SDS_P1;SDS_P2;PMS_P1;PMS_P2;Temp;Humidity;BMP_temperature;BMP_pressure;BME280_temperature;BME280_humidity;BME280_pressure;Samples;Min_cycle;Max_cycle;Signal;HPM_P1;HPM_P2
2021/08/25 00:00:47;;;;;;;0.38;0.17;;;24.70;51.60;;;;;;5065384;28;20135;-70
2021/08/25 00:03:14;;;;;;;0.25;0.25;;;24.70;51.60;;;;;;5065081;28;20045;-70
2021/08/25 00:05:42;;;;;;;0.20;0.20;;;24.70;51.60;;;;;;5065211;28;20067;-70
2021/08/25 00:08:09;;;;;;;0.20;0.20;;;24.70;51.60;;;;;;5065493;28;20497;-70
2021/08/25 00:10:36;;;;;;;0.10;0.10;;;24.70;51.70;;;;;;5065110;28;20175;-70
2021/08/25 00:13:06;;;;;;;0.10;0.10;;;24.70;51.70;;;;;;5065618;28;20058;-70
2021/08/25 00:15:35;;;;;;;0.30;0.10;;;24.70;51.70;;;;;;5064641;28;20076;-70
2021/08/25 00:18:03;;;;;;;0.00;0.00;;;24.70;51.70;;;;;;5064065;28;20059;-70
2021/08/25 00:20:30;;;;;;;0.08;0.08;;;24.70;51.70;;;;;;5064345;28;20139;-70
2021/08/25 00:22:57;;;;;;;0.25;0.10;;;24.70;51.70;;;;;;5063951;28;20059;-70
2021/08/25 00:25:27;;;;;;;0.25;0.10;;;24.70;51.70;;;;;;5068386;28;20087;-70
2021/08/25 00:27:54;;;;;;;0.45;0.10;;;24.70;51.40;;;;;;5068788;28;20119;-70
2021/08/25 00:30:22;;;;;;;0.30;0.15;;;24.70;51.70;;;;;;5068760;28;20083;-70
2021/08/25 00:32:50;;;;;;;0.10;0.10;;;24.70;51.70;;;;;;5068620;28;20051;-70
2021/08/25 00:35:18;;;;;;;0.10;0.10;;;24.70;51.70;;;;;;5068375;28;20072;-70
2021/08/25 00:37:45;;;;;;;0.55;0.20;;;24.60;51.70;;;;;;5068530;28;20499;-70
2021/08/25 00:40:13;;;;;;;0.10;0.10;;;24.60;51.70;;;;;;5068009;28;20303;-70
2021/08/25 00:42:40;;;;;;;0.38;0.22;;;24.70;51.80;;;;;;5068597;28;20131;-70
2021/08/25 00:45:08;;;;;;;0.10;0.10;;;24.60;51.70;;;;;;5068554;28;20402;-70
2021/08/25 00:47:37;;;;;;;0.10;0.10;;;24.60;51.70;;;;;;5068347;28;20491;-70
2021/08/25 00:50:06;;;;;;;0.30;0.10;;;24.60;51.70;;;;;;5068355;28;20258;-70
2021/08/25 00:52:38;;;;;;;0.20;0.20;;;24.60;51.70;;;;;;5068283;28;20535;-70
2021/08/25 00:55:06;;;;;;;3.00;0.10;;;24.60;51.80;;;;;;5068715;28;20056;-70
2021/08/25 00:57:37;;;;;;;0.43;0.10;;;24.60;51.70;;;;;;5068277;28;20481;-70
2021/08/25 01:00:07;;;;;;;;;;;24.60;51.70;;;;;;5068701;28;20120;-70
2021/08/25 01:02:50;;;;;;;0.20;0.10;;;24.60;51.70;;;;;;5067907;28;20031;-71
2021/08/25 01:05:18;;;;;;;0.15;0.15;;;24.60;51.70;;;;;;5068069;28;20204;-70
2021/08/25 01:07:46;;;;;;;0.13;0.10;;;24.60;51.70;;;;;;5068504;28;20394;-70
2021/08/25 01:10:22;;;;;;;0.43;0.25;;;24.70;51.70;;;;;;5067749;28;20044;-70
2021/08/25 01:12:49;;;;;;;0.25;0.17;;;24.70;51.70;;;;;;5066697;28;20124;-70
2021/08/25 01:15:16;;;;;;;0.00;0.00;;;24.70;51.70;;;;;;5067643;28;20060;-70
2021/08/25 01:17:45;;;;;;;0.15;0.10;;;24.70;51.70;;;;;;5058557;28;20073;-70
2021/08/25 01:20:14;;;;;;;0.13;0.13;;;24.70;51.70;;;;;;5057955;28;20507;-70
2021/08/25 01:22:42;;;;;;;0.32;0.20;;;24.70;51.60;;;;;;5058831;28;20361;-70
2021/08/25 01:25:11;;;;;;;0.10;0.10;;;24.60;51.60;;;;;;5051076;28;20055;-70
2021/08/25 01:27:41;;;;;;;0.10;0.10;;;24.70;51.70;;;;;;5047001;28;20048;-70
2021/08/25 01:30:10;;;;;;;0.00;0.00;;;24.60;51.60;;;;;;5047059;28;20139;-70
2021/08/25 01:32:38;;;;;;;0.20;0.20;;;24.60;51.60;;;;;;5047869;28;20087;-70
2021/08/25 01:35:05;;;;;;;0.17;0.17;;;24.60;51.70;;;;;;5047207;28;20397;-70
2021/08/25 01:37:32;;;;;;;0.15;0.15;;;24.60;51.70;;;;;;5047718;28;20044;-70
2021/08/25 01:40:00;;;;;;;0.10;0.10;;;24.60;51.60;;;;;;5045707;28;20045;-70
2021/08/25 01:42:27;;;;;;;0.10;0.10;;;24.60;51.70;;;;;;5046271;28;20132;-70
2021/08/25 01:44:54;;;;;;;0.10;0.10;;;24.60;51.60;;;;;;5047475;28;20132;-70
2021/08/25 01:47:25;;;;;;;0.10;0.10;;;24.60;51.70;;;;;;5046064;28;20127;-70
2021/08/25 01:49:52;;;;;;;0.10;0.10;;;24.60;51.60;;;;;;5047370;28;20041;-70
2021/08/25 01:52:20;;;;;;;0.10;0.10;;;24.60;51.70;;;;;;5046791;28;20583;-70
2021/08/25 01:54:52;;;;;;;0.10;0.10;;;24.60;51.60;;;;;;5047090;28;20045;-70
2021/08/25 01:57:20;;;;;;;0.32;0.10;;;24.60;51.70;;;;;;5046751;28;20478;-70
2021/08/25 01:59:47;;;;;;;0.10;0.10;;;24.60;51.70;;;;;;5046479;28;20314;-70
2021/08/25 02:02:14;;;;;;;0.25;0.25;;;24.60;51.70;;;;;;5047714;28;20123;-70
2021/08/25 02:04:42;;;;;;;0.13;0.10;;;24.60;51.60;;;;;;5046840;28;20688;-70
2021/08/25 02:07:09;;;;;;;0.20;0.20;;;24.60;51.60;;;;;;5047198;28;20088;-70
2021/08/25 02:09:36;;;;;;;0.25;0.25;;;24.60;51.60;;;;;;5046627;28;20049;-70
2021/08/25 02:12:04;;;;;;;0.20;0.17;;;24.60;51.60;;;;;;5047117;28;20398;-70
2021/08/25 02:14:31;;;;;;;0.20;0.20;;;24.60;51.60;;;;;;5046850;28;20550;-70
2021/08/25 02:16:58;;;;;;;0.45;0.38;;;24.60;51.70;;;;;;5046160;28;20045;-70
2021/08/25 02:19:25;;;;;;;0.00;0.00;;;24.60;51.60;;;;;;5046981;28;20498;-70
2021/08/25 02:21:52;;;;;;;0.10;0.10;;;24.60;51.60;;;;;;5046342;28;20458;-70
2021/08/25 02:24:19;;;;;;;0.15;0.15;;;24.60;51.70;;;;;;5046456;28;20055;-70
2021/08/25 02:26:46;;;;;;;0.35;0.10;;;24.60;51.70;;;;;;5046855;28;20405;-70
2021/08/25 02:29:13;;;;;;;0.20;0.20;;;24.60;51.60;;;;;;5058208;28;20054;-70
2021/08/25 02:31:40;;;;;;;0.43;0.35;;;24.60;51.60;;;;;;5066065;28;20048;-70
2021/08/25 02:34:08;;;;;;;0.63;0.30;;;24.60;51.60;;;;;;5065540;28;20143;-70
2021/08/25 02:36:35;;;;;;;0.20;0.20;;;24.60;51.50;;;;;;5065499;28;20501;-70
2021/08/25 02:39:03;;;;;;;0.10;0.10;;;24.60;51.50;;;;;;5066024;28;20127;-70
2021/08/25 02:41:30;;;;;;;0.20;0.20;;;24.60;51.50;;;;;;5065628;28;20091;-70
2021/08/25 02:43:57;;;;;;;0.38;0.10;;;24.60;51.50;;;;;;5066210;28;20040;-70
2021/08/25 02:46:24;;;;;;;0.10;0.10;;;24.60;51.50;;;;;;5064469;28;20072;-70
2021/08/25 02:48:51;;;;;;;0.25;0.20;;;24.60;51.50;;;;;;5065311;28;20080;-70
2021/08/25 02:51:18;;;;;;;0.20;0.20;;;24.60;51.40;;;;;;5066442;28;20055;-70
2021/08/25 02:53:45;;;;;;;0.38;0.20;;;24.60;51.40;;;;;;5065904;28;20045;-70
2021/08/25 02:56:12;;;;;;;0.20;0.20;;;24.60;51.30;;;;;;5066252;28;20060;-69
2021/08/25 02:58:39;;;;;;;0.65;0.30;;;24.60;51.30;;;;;;5066086;28;20139;-70
2021/08/25 03:01:06;;;;;;;0.30;0.30;;;24.60;51.40;;;;;;5066104;28;20120;-70
2021/08/25 03:03:34;;;;;;;0.90;0.40;;;24.60;51.30;;;;;;5066104;28;20142;-70
2021/08/25 03:06:01;;;;;;;0.10;0.10;;;24.60;51.40;;;;;;5065770;28;20106;-70
2021/08/25 03:08:28;;;;;;;0.30;0.30;;;24.60;51.40;;;;;;5066150;28;20169;-70
2021/08/25 03:10:55;;;;;;;0.20;0.20;;;24.60;51.40;;;;;;5065354;28;20044;-70
2021/08/25 03:13:22;;;;;;;0.17;0.17;;;24.60;51.40;;;;;;5065886;28;20128;-70
2021/08/25 03:15:49;;;;;;;0.52;0.30;;;24.60;51.40;;;;;;5065690;28;20135;-70
2021/08/25 03:18:16;;;;;;;0.25;0.20;;;24.60;51.40;;;;;;5065700;28;20102;-70
2021/08/25 03:20:43;;;;;;;0.40;0.40;;;24.60;51.50;;;;;;5066061;28;20076;-70
2021/08/25 03:23:11;;;;;;;0.40;0.30;;;24.60;51.40;;;;;;5065894;28;20072;-70
2021/08/25 03:25:38;;;;;;;0.30;0.30;;;24.60;51.50;;;;;;5065960;28;20060;-70
2021/08/25 03:28:05;;;;;;;1.33;0.20;;;24.60;51.50;;;;;;5065477;28;20053;-70
2021/08/25 03:30:32;;;;;;;0.30;0.22;;;24.60;51.50;;;;;;5065438;28;20123;-70
2021/08/25 03:33:04;;;;;;;0.28;0.25;;;24.60;51.50;;;;;;5065640;28;20047;-70
2021/08/25 03:35:32;;;;;;;0.40;0.30;;;24.60;51.50;;;;;;5065075;28;20225;-70
2021/08/25 03:38:00;;;;;;;0.35;0.20;;;24.60;51.50;;;;;;5065551;28;20413;-70
2021/08/25 03:40:27;;;;;;;0.20;0.10;;;24.60;51.50;;;;;;5064187;28;20041;-70
2021/08/25 03:42:54;;;;;;;0.28;0.25;;;24.60;51.50;;;;;;5064665;28;20049;-73
2021/08/25 03:45:21;;;;;;;0.25;0.10;;;24.60;51.50;;;;;;5055637;28;20120;-70
2021/08/25 03:47:48;;;;;;;1.88;0.30;;;24.60;51.50;;;;;;5049174;28;20049;-70
2021/08/25 03:50:15;;;;;;;0.43;0.20;;;24.60;51.50;;;;;;5059889;28;20531;-70
2021/08/25 03:52:42;;;;;;;0.13;0.13;;;24.60;51.50;;;;;;5047701;28;20446;-70
2021/08/25 03:55:10;;;;;;;0.50;0.40;;;24.60;51.50;;;;;;5046296;28;20542;-70
2021/08/25 03:57:37;;;;;;;0.30;0.25;;;24.60;51.50;;;;;;5047800;28;20525;-70
2021/08/25 04:00:04;;;;;;;0.55;0.30;;;24.60;51.50;;;;;;5051520;28;20055;-70
2021/08/25 04:02:32;;;;;;;0.20;0.20;;;24.60;51.50;;;;;;5047561;28;20037;-70
2021/08/25 04:04:59;;;;;;;0.95;0.40;;;24.60;51.50;;;;;;5046258;28;20446;-71
2021/08/25 04:07:26;;;;;;;0.30;0.30;;;24.60;51.40;;;;;;5048371;28;20403;-70
2021/08/25 04:09:53;;;;;;;0.13;0.13;;;24.60;51.40;;;;;;5048778;28;20052;-70
2021/08/25 04:12:20;;;;;;;0.35;0.10;;;24.60;51.30;;;;;;5067273;28;20449;-70
2021/08/25 04:14:47;;;;;;;0.20;0.20;;;24.70;51.40;;;;;;5059861;28;20091;-70
2021/08/25 04:17:14;;;;;;;0.98;0.20;;;24.70;51.40;;;;;;5055934;28;20079;-70
2021/08/25 04:19:41;;;;;;;0.77;0.20;;;24.60;51.30;;;;;;5068962;28;20297;-70
2021/08/25 04:22:08;;;;;;;0.63;0.40;;;24.60;51.20;;;;;;5061246;28;20355;-70
2021/08/25 04:24:36;;;;;;;0.17;0.17;;;24.70;51.20;;;;;;5068335;28;20127;-70
2021/08/25 04:27:04;;;;;;;0.77;0.40;;;24.70;51.20;;;;;;5061791;28;20073;-71
2021/08/25 04:29:31;;;;;;;0.20;0.20;;;24.70;51.20;;;;;;5047050;28;20056;-70
2021/08/25 04:31:58;;;;;;;0.75;0.28;;;24.70;51.20;;;;;;5048160;28;20124;-70
2021/08/25 04:34:25;;;;;;;0.50;0.50;;;24.70;51.10;;;;;;5057293;28;20044;-70
2021/08/25 04:36:52;;;;;;;0.50;0.50;;;24.70;51.20;;;;;;5049179;28;20095;-70
2021/08/25 04:39:19;;;;;;;0.25;0.25;;;24.70;51.10;;;;;;5054460;28;20327;-70
2021/08/25 04:41:46;;;;;;;0.30;0.30;;;24.70;51.10;;;;;;5066239;28;20140;-70
2021/08/25 04:44:13;;;;;;;0.70;0.20;;;24.70;51.10;;;;;;5061328;28;20123;-70
2021/08/25 04:46:40;;;;;;;0.20;0.20;;;24.70;51.10;;;;;;5055621;28;20140;-70
2021/08/25 04:49:07;;;;;;;0.20;0.20;;;24.70;51.10;;;;;;5063639;28;20049;-71
2021/08/25 04:51:34;;;;;;;0.43;0.30;;;24.70;51.10;;;;;;5053331;28;20509;-70
2021/08/25 04:54:01;;;;;;;0.30;0.30;;;24.70;51.00;;;;;;5055296;28;20127;-70
2021/08/25 04:56:28;;;;;;;0.28;0.20;;;24.70;51.00;;;;;;5061529;28;20505;-70
2021/08/25 04:58:55;;;;;;;3.00;0.20;;;24.70;51.00;;;;;;5059078;28;20699;-70
2021/08/25 05:01:22;;;;;;;0.52;0.28;;;24.70;51.00;;;;;;5049793;28;20048;-71
2021/08/25 05:03:50;;;;;;;0.20;0.20;;;24.70;51.00;;;;;;5063720;28;20303;-70
2021/08/25 05:06:17;;;;;;;0.30;0.30;;;24.70;50.90;;;;;;5055857;28;20056;-70
2021/08/25 05:08:44;;;;;;;0.32;0.32;;;24.70;50.80;;;;;;5067624;28;20080;-70
2021/08/25 05:11:12;;;;;;;0.28;0.10;;;24.70;50.70;;;;;;5061430;28;20051;-71
2021/08/25 05:13:41;;;;;;;0.85;0.60;;;24.70;50.60;;;;;;5067643;28;20066;-71
2021/08/25 05:16:10;;;;;;;0.22;0.20;;;24.60;50.50;;;;;;5052745;28;20083;-72
2021/08/25 05:18:41;;;;;;;0.47;0.20;;;24.60;50.50;;;;;;5058012;28;20464;-70
2021/08/25 05:21:09;;;;;;;0.50;0.38;;;24.50;50.50;;;;;;5055347;28;20494;-71
2021/08/25 05:23:36;;;;;;;0.47;0.40;;;24.50;50.50;;;;;;5075013;28;20083;-72
2021/08/25 05:26:05;;;;;;;0.55;0.45;;;24.40;49.90;;;;;;5074926;28;20052;-72
2021/08/25 05:28:34;;;;;;;0.30;0.30;;;24.20;48.60;;;;;;5075182;28;20086;-72
2021/08/25 05:31:01;;;;;;;2.25;0.35;;;24.10;49.50;;;;;;5074683;28;20123;-73
2021/08/25 05:33:28;;;;;;;1.25;0.50;;;23.90;49.50;;;;;;5068392;28;20569;-71
2021/08/25 05:35:57;;;;;;;1.80;1.00;;;23.80;50.50;;;;;;5052671;28;20048;-71
2021/08/25 05:38:24;;;;;;;2.85;0.80;;;23.70;48.80;;;;;;5052387;28;20553;-69
2021/08/25 05:40:51;;;;;;;1.48;1.20;;;23.50;48.80;;;;;;5052654;28;20120;-70
2021/08/25 05:43:19;;;;;;;0.68;0.68;;;23.30;48.70;;;;;;5044916;28;20136;-66
2021/08/25 05:45:46;;;;;;;1.60;0.77;;;23.10;49.00;;;;;;5053400;28;20045;-69
2021/08/25 05:48:13;;;;;;;1.13;0.90;;;22.90;49.10;;;;;;5052136;28;20048;-72
2021/08/25 05:50:40;;;;;;;1.80;0.95;;;22.70;50.00;;;;;;5053081;28;20037;-72
2021/08/25 05:53:08;;;;;;;1.35;0.80;;;22.60;50.40;;;;;;5052514;28;20049;-69
2021/08/25 05:55:38;;;;;;;3.05;1.25;;;22.40;50.80;;;;;;5051766;28;20797;-72
2021/08/25 05:58:06;;;;;;;1.20;1.10;;;22.30;51.20;;;;;;5047584;28;20139;-70
2021/08/25 06:00:33;;;;;;;1.45;1.35;;;22.20;51.30;;;;;;5052252;28;20128;-69
2021/08/25 06:03:01;;;;;;;2.22;1.40;;;22.10;51.60;;;;;;5053535;28;20147;-67
2021/08/25 06:05:29;;;;;;;1.45;1.20;;;22.00;51.50;;;;;;5055606;28;20098;-67
2021/08/25 06:07:56;;;;;;;2.72;1.50;;;21.90;51.80;;;;;;5048835;28;20053;-67
2021/08/25 06:10:23;;;;;;;2.22;1.60;;;21.80;52.30;;;;;;5053336;28;20049;-67
2021/08/25 06:12:51;;;;;;;2.03;1.60;;;21.70;52.50;;;;;;5050985;28;20067;-67
2021/08/25 06:15:18;;;;;;;2.55;1.63;;;21.60;52.60;;;;;;5053731;28;20255;-68
2021/08/25 06:17:46;;;;;;;1.50;1.40;;;21.60;52.70;;;;;;5054005;28;20123;-67
2021/08/25 06:20:14;;;;;;;3.78;1.92;;;21.50;53.20;;;;;;5050042;28;20055;-66
2021/08/25 06:22:41;;;;;;;3.13;1.50;;;21.40;53.60;;;;;;5052586;28;20129;-67
2021/08/25 06:25:09;;;;;;;3.88;1.77;;;21.30;54.00;;;;;;5053097;28;20087;-68
2021/08/25 06:27:36;;;;;;;7.20;2.30;;;21.30;54.30;;;;;;5052570;28;20037;-68
2021/08/25 06:30:04;;;;;;;3.97;2.17;;;21.20;54.70;;;;;;5043827;28;20076;-67
2021/08/25 06:32:31;;;;;;;3.30;2.25;;;21.10;54.90;;;;;;5049218;28;20045;-71
2021/08/25 06:34:58;;;;;;;3.97;2.40;;;21.10;55.00;;;;;;5045431;28;20152;-70
2021/08/25 06:37:26;;;;;;;2.83;2.53;;;21.10;55.20;;;;;;5055371;28;20059;-71
2021/08/25 06:39:53;;;;;;;4.07;2.92;;;21.00;55.50;;;;;;5050538;28;20452;-72
2021/08/25 06:42:20;;;;;;;3.85;2.85;;;21.00;55.90;;;;;;5044559;28;20106;-72
2021/08/25 06:44:47;;;;;;;2.75;2.55;;;21.00;55.90;;;;;;5047885;28;20101;-71
2021/08/25 06:47:14;;;;;;;5.80;3.10;;;21.00;56.20;;;;;;5053811;28;20076;-67
2021/08/25 06:49:41;;;;;;;5.05;2.88;;;21.00;56.50;;;;;;5054858;28;20128;-70
2021/08/25 06:52:08;;;;;;;4.00;3.25;;;21.00;56.40;;;;;;5053072;28;20053;-70
2021/08/25 06:54:36;;;;;;;6.65;4.00;;;21.00;56.20;;;;;;5055997;28;20480;-70
2021/08/25 06:57:04;;;;;;;4.82;4.00;;;20.90;56.20;;;;;;5054223;28;20501;-65
2021/08/25 06:59:31;;;;;;;4.50;4.10;;;20.90;56.20;;;;;;5050148;28;20048;-67
2021/08/25 07:01:58;;;;;;;10.45;4.35;;;20.90;56.00;;;;;;5049561;28;20337;-69
2021/08/25 07:04:25;;;;;;;6.35;4.00;;;20.90;56.20;;;;;;5050119;28;20394;-67
2021/08/25 07:06:52;;;;;;;6.15;4.18;;;20.90;56.40;;;;;;5046676;28;20139;-67
2021/08/25 07:09:20;;;;;;;6.80;4.95;;;20.80;56.20;;;;;;5049925;28;20051;-67
2021/08/25 07:11:47;;;;;;;7.50;5.20;;;20.80;56.30;;;;;;5050048;28;20041;-69
2021/08/25 07:14:14;;;;;;;7.70;5.13;;;20.80;56.40;;;;;;5044240;28;20053;-71
2021/08/25 07:16:41;;;;;;;8.65;5.45;;;20.80;56.40;;;;;;5045229;28;20045;-71
2021/08/25 07:19:09;;;;;;;7.63;4.85;;;20.80;56.10;;;;;;5058727;28;20156;-71
2021/08/25 07:21:36;;;;;;;4.70;4.20;;;20.80;56.00;;;;;;5059146;28;20463;-71
2021/08/25 07:24:03;;;;;;;6.13;4.18;;;20.80;56.10;;;;;;5055841;28;20397;-71
2021/08/25 07:26:31;;;;;;;8.95;4.82;;;20.80;56.00;;;;;;5052375;28;20047;-71
2021/08/25 07:28:58;;;;;;;7.18;4.68;;;20.80;55.90;;;;;;5055470;28;20132;-67
2021/08/25 07:31:25;;;;;;;9.80;3.92;;;20.80;56.10;;;;;;5052360;28;20041;-68
2021/08/25 07:33:52;;;;;;;8.32;4.20;;;20.80;56.30;;;;;;5057642;28;20062;-67
2021/08/25 07:36:20;;;;;;;11.20;5.07;;;20.80;56.10;;;;;;5055955;28;20045;-67
2021/08/25 07:38:47;;;;;;;14.93;4.90;;;20.80;56.00;;;;;;5061134;28;20493;-76
2021/08/25 07:41:14;;;;;;;16.67;4.68;;;20.80;56.20;;;;;;5055666;28;20053;-75
2021/08/25 07:43:41;;;;;;;13.55;4.35;;;20.80;56.50;;;;;;5056548;28;20136;-72
2021/08/25 07:46:08;;;;;;;9.38;4.65;;;20.80;56.70;;;;;;5059699;28;20056;-74
2021/08/25 07:48:36;;;;;;;18.13;3.97;;;20.80;57.10;;;;;;5062202;28;20131;-76
2021/08/25 07:51:08;;;;;;;14.13;4.07;;;20.90;56.90;;;;;;5058685;28;20069;-72
2021/08/25 07:53:37;;;;;;;20.52;4.05;;;20.90;56.70;;;;;;5058489;28;20479;-68
2021/08/25 07:56:04;;;;;;;12.45;3.70;;;21.00;56.90;;;;;;5056400;28;20042;-72
2021/08/25 07:58:31;;;;;;;6.60;3.55;;;21.10;56.80;;;;;;5055933;28;20076;-70
2021/08/25 08:01:10;;;;;;;5.47;2.95;;;21.10;56.40;;;;;;5058324;28;20520;-71
2021/08/25 08:03:38;;;;;;;8.38;3.22;;;21.20;56.50;;;;;;5066171;28;20052;-73
2021/08/25 08:06:05;;;;;;;8.05;2.65;;;21.20;56.50;;;;;;5060725;28;20556;-70
2021/08/25 08:08:32;;;;;;;4.15;3.22;;;21.30;56.10;;;;;;5062367;28;20095;-71
2021/08/25 08:10:59;;;;;;;5.25;3.50;;;21.30;55.90;;;;;;5058328;28;20048;-72
2021/08/25 08:13:27;;;;;;;6.03;2.80;;;21.40;56.00;;;;;;5054720;28;20128;-70
2021/08/25 08:15:55;;;;;;;9.45;3.30;;;21.40;55.70;;;;;;5059163;28;20059;-74
2021/08/25 08:18:31;;;;;;;5.28;2.90;;;21.50;55.40;;;;;;5056598;28;20511;-73
2021/08/25 08:20:58;;;;;;;3.30;3.00;;;21.40;55.60;;;;;;5061036;28;20500;-73
2021/08/25 08:23:25;;;;;;;4.35;3.20;;;21.50;55.70;;;;;;5058155;28;20415;-72
2021/08/25 08:25:56;;;;;;;3.92;2.90;;;21.50;55.40;;;;;;5046872;28;20049;-71
2021/08/25 08:28:24;;;;;;;4.47;2.67;;;21.50;55.50;;;;;;5054019;28;20048;-71
2021/08/25 08:30:51;;;;;;;7.95;2.85;;;21.60;55.70;;;;;;5054309;28;20395;-71
2021/08/25 08:33:18;;;;;;;3.15;2.72;;;21.60;55.50;;;;;;5056086;28;20118;-71
2021/08/25 08:35:45;;;;;;;4.53;2.80;;;21.60;55.40;;;;;;5056502;28;20062;-71
2021/08/25 08:38:13;;;;;;;3.72;2.80;;;21.70;55.60;;;;;;5055032;28;20462;-70
2021/08/25 08:40:41;;;;;;;2.55;2.33;;;21.70;55.30;;;;;;5055699;28;20183;-70
2021/08/25 08:43:10;;;;;;;4.47;2.13;;;21.70;55.00;;;;;;5055307;28;20135;-68
2021/08/25 08:45:40;;;;;;;5.03;2.70;;;21.80;55.20;;;;;;5051438;28;20056;-70
2021/08/25 08:48:09;;;;;;;4.15;2.67;;;21.80;55.20;;;;;;5056631;28;20032;-72
2021/08/25 08:50:37;;;;;;;2.92;2.55;;;21.90;54.80;;;;;;5056180;28;20045;-71
2021/08/25 08:53:08;;;;;;;2.92;2.55;;;21.90;54.70;;;;;;5057733;28;20136;-71
2021/08/25 08:55:35;;;;;;;;;;;21.90;54.70;;;;;;5058551;28;20059;-70
2021/08/25 08:58:03;;;;;;;4.55;3.00;;;22.00;54.50;;;;;;5069413;28;20010;-71
2021/08/25 09:00:30;;;;;;;2.65;2.45;;;22.00;54.00;;;;;;5057776;28;20131;-68
2021/08/25 09:02:57;;;;;;;5.55;3.00;;;22.00;54.30;;;;;;5057786;28;20041;-71
2021/08/25 09:05:28;;;;;;;3.22;2.50;;;22.00;54.10;;;;;;5065651;28;20049;-69
2021/08/25 09:08:04;;;;;;;3.65;2.45;;;22.00;53.80;;;;;;5055083;28;21092;-70
2021/08/25 09:10:33;;;;;;;2.90;2.67;;;22.00;54.00;;;;;;5059359;28;20080;-70
2021/08/25 09:13:04;;;;;;;2.50;2.25;;;22.00;54.00;;;;;;5055938;28;20051;-70
2021/08/25 09:15:33;;;;;;;2.97;2.10;;;22.00;53.60;;;;;;5061926;28;20548;-70
2021/08/25 09:18:04;;;;;;;2.72;2.53;;;22.00;53.70;;;;;;5060052;28;20065;-70
2021/08/25 09:20:33;;;;;;;;;;;22.10;53.90;;;;;;5060556;28;20048;-71
2021/08/25 09:23:13;;;;;;;2.78;2.50;;;22.10;53.80;;;;;;5058007;28;20268;-69
2021/08/25 09:25:42;;;;;;;3.60;2.72;;;22.10;53.60;;;;;;5057436;28;20044;-70
2021/08/25 09:28:12;;;;;;;4.50;2.50;;;22.10;53.80;;;;;;5057160;28;20090;-69
2021/08/25 09:30:54;;;;;;;;;;;22.10;53.80;;;;;;5054764;28;20789;-68
2021/08/25 09:33:44;;;;;;;3.60;2.15;;;22.20;53.60;;;;;;5059907;28;21946;-68
2021/08/25 09:36:15;;;;;;;2.95;2.30;;;22.20;53.70;;;;;;5059172;28;20064;-68
2021/08/25 09:38:57;;;;;;;4.03;2.60;;;22.20;53.60;;;;;;5058505;28;20068;-68
2021/08/25 09:41:25;;;;;;;2.72;2.53;;;22.20;53.30;;;;;;5057939;28;20493;-67
2021/08/25 09:43:52;;;;;;;3.35;2.30;;;22.30;53.50;;;;;;5054556;28;20551;-71
2021/08/25 09:46:25;;;;;;;3.80;2.40;;;22.40;53.60;;;;;;5059450;28;20584;-68
2021/08/25 09:48:56;;;;;;;5.32;2.63;;;22.40;53.20;;;;;;5059994;28;20479;-67
2021/08/25 09:51:25;;;;;;;4.13;3.00;;;22.40;53.20;;;;;;5057972;28;20079;-68
2021/08/25 09:54:08;;;;;;;3.58;2.55;;;22.50;53.40;;;;;;5063266;28;20090;-68
2021/08/25 09:56:37;;;;;;;3.08;2.78;;;22.50;53.10;;;;;;5063278;28;20140;-66
2021/08/25 09:59:06;;;;;;;2.55;2.25;;;22.60;52.90;;;;;;5055493;28;20136;-66
2021/08/25 10:01:34;;;;;;;2.85;2.60;;;22.60;53.10;;;;;;5055327;28;20080;-69
2021/08/25 10:04:08;;;;;;;3.33;2.45;;;22.60;52.90;;;;;;5060726;28;20041;-71
2021/08/25 10:06:37;;;;;;;3.30;2.40;;;22.70;52.70;;;;;;5055848;28;20136;-72
2021/08/25 10:09:07;;;;;;;4.45;2.63;;;22.70;52.80;;;;;;5055220;28;20141;-69
2021/08/25 10:11:40;;;;;;;2.85;2.35;;;22.70;52.80;;;;;;5059133;28;20107;-69
2021/08/25 10:14:13;;;;;;;3.45;2.80;;;22.70;52.50;;;;;;5061172;28;20045;-70
2021/08/25 10:16:49;;;;;;;2.60;2.40;;;22.70;52.50;;;;;;5060567;28;20052;-69
2021/08/25 10:19:38;;;;;;;2.72;2.42;;;22.70;52.50;;;;;;5060718;28;20040;-70
2021/08/25 10:22:25;;;;;;;3.00;2.40;;;22.80;52.40;;;;;;5054644;28;20078;-70
2021/08/25 10:25:05;;;;;;;2.92;1.95;;;22.70;52.30;;;;;;5053209;28;20041;-69
2021/08/25 10:27:36;;;;;;;5.40;2.00;;;22.80;52.60;;;;;;5049122;28;20139;-69
2021/08/25 10:30:09;;;;;;;3.90;2.53;;;22.70;52.30;;;;;;5048897;28;20135;-69
2021/08/25 10:32:57;;;;;;;2.35;2.08;;;22.80;52.10;;;;;;5048580;28;20136;-69
2021/08/25 10:35:30;;;;;;;2.90;2.40;;;22.80;52.20;;;;;;5052098;28;20398;-69
2021/08/25 10:38:19;;;;;;;5.40;2.25;;;22.70;52.00;;;;;;5058907;28;20037;-68
2021/08/25 10:40:48;;;;;;;2.65;2.03;;;22.70;51.90;;;;;;5052180;28;20055;-67
2021/08/25 10:43:36;;;;;;;2.83;2.33;;;22.70;52.00;;;;;;5051587;28;20061;-69
2021/08/25 10:46:05;;;;;;;2.88;2.15;;;22.70;52.00;;;;;;5054603;28;20068;-70
2021/08/25 10:48:38;;;;;;;2.28;2.08;;;22.70;51.80;;;;;;5053920;28;20055;-70
2021/08/25 10:51:32;;;;;;;1.80;1.70;;;22.70;51.90;;;;;;5054325;28;20052;-70
2021/08/25 10:54:02;;;;;;;3.33;2.30;;;22.70;52.00;;;;;;5055255;28;20931;-69
2021/08/25 10:56:33;;;;;;;2.28;2.08;;;22.70;51.70;;;;;;5056612;28;20177;-69
2021/08/25 10:59:04;;;;;;;3.63;2.03;;;22.70;52.00;;;;;;5053393;28;20072;-72
2021/08/25 11:01:38;;;;;;;3.55;2.10;;;22.70;52.00;;;;;;5055485;28;20103;-73
2021/08/25 11:04:13;;;;;;;2.95;2.05;;;22.70;51.90;;;;;;5051918;28;20064;-71
2021/08/25 11:06:44;;;;;;;2.40;2.20;;;22.70;51.90;;;;;;5055844;28;20076;-71
2021/08/25 11:09:17;;;;;;;2.30;1.95;;;22.70;51.90;;;;;;5051882;28;20147;-72
2021/08/25 11:11:51;;;;;;;2.80;2.08;;;22.70;51.80;;;;;;5057375;28;20041;-68
2021/08/25 11:14:29;;;;;;;3.47;2.22;;;22.80;51.80;;;;;;5056171;28;20121;-74
2021/08/25 11:17:09;;;;;;;2.22;2.03;;;22.80;51.80;;;;;;5054483;28;20045;-74
2021/08/25 11:19:40;;;;;;;2.25;2.05;;;22.80;51.70;;;;;;5054296;28;20076;-70
2021/08/25 11:22:24;;;;;;;3.22;2.45;;;22.80;51.50;;;;;;5058272;28;20139;-72
2021/08/25 11:25:00;;;;;;;2.03;1.80;;;22.80;51.80;;;;;;5056380;28;20447;-69
2021/08/25 11:27:37;;;;;;;1.60;1.50;;;22.90;51.80;;;;;;5055809;28;20770;-69
2021/08/25 11:30:26;;;;;;;2.08;1.85;;;22.80;51.50;;;;;;5056048;28;20044;-68
2021/08/25 11:33:09;;;;;;;1.95;1.73;;;22.80;51.60;;;;;;5053836;28;20041;-66
2021/08/25 11:35:43;;;;;;;3.92;1.83;;;22.90;51.70;;;;;;5060762;28;20120;-70
2021/08/25 11:38:17;;;;;;;1.83;1.73;;;22.90;51.60;;;;;;5055673;28;20148;-67
2021/08/25 11:40:47;;;;;;;2.30;1.98;;;22.90;51.80;;;;;;5054339;28;20049;-65
2021/08/25 11:43:17;;;;;;;2.03;1.90;;;22.90;51.80;;;;;;5047383;28;20417;-69
2021/08/25 11:45:48;;;;;;;1.98;1.80;;;22.90;51.60;;;;;;5056029;28;20135;-68
2021/08/25 11:48:15;;;;;;;3.90;1.80;;;22.90;51.70;;;;;;5054957;28;20090;-69
2021/08/25 11:50:48;;;;;;;1.98;1.88;;;23.00;51.90;;;;;;5053452;28;20040;-69
2021/08/25 11:53:21;;;;;;;2.90;2.20;;;22.90;51.80;;;;;;5055184;28;20131;-70
2021/08/25 11:55:50;;;;;;;3.38;1.70;;;23.00;51.70;;;;;;5054128;28;20036;-68
2021/08/25 11:58:30;;;;;;;2.58;1.75;;;22.90;51.60;;;;;;5053154;28;20045;-70
2021/08/25 12:00:58;;;;;;;4.45;1.90;;;23.00;51.50;;;;;;5051947;28;20132;-70
2021/08/25 12:03:41;;;;;;;2.13;1.80;;;23.00;51.20;;;;;;5051487;28;20049;-69
2021/08/25 12:06:10;;;;;;;2.50;1.73;;;22.90;51.30;;;;;;5048015;28;20388;-66
2021/08/25 12:08:39;;;;;;;7.65;2.35;;;22.90;51.30;;;;;;5053793;28;20135;-67
2021/08/25 12:11:08;;;;;;;3.28;2.13;;;22.90;51.00;;;;;;5054960;28;20103;-65
2021/08/25 12:13:37;;;;;;;1.90;1.80;;;23.00;50.90;;;;;;5052974;28;20056;-65
2021/08/25 12:16:07;;;;;;;2.27;1.70;;;23.00;50.90;;;;;;5052501;28;20100;-67
2021/08/25 12:18:50;;;;;;;2.00;1.80;;;23.10;50.80;;;;;;5048264;28;20073;-67
2021/08/25 12:21:18;;;;;;;3.05;2.03;;;23.00;50.60;;;;;;5055295;28;20132;-69
2021/08/25 12:24:07;;;;;;;4.03;1.92;;;23.10;50.80;;;;;;5059064;28;20512;-67
2021/08/25 12:26:36;;;;;;;2.08;1.88;;;23.10;50.80;;;;;;5058548;28;20124;-69
2021/08/25 12:29:05;;;;;;;3.67;2.20;;;23.10;51.00;;;;;;5058409;28;20059;-68
2021/08/25 12:31:33;;;;;;;2.67;1.70;;;23.10;51.10;;;;;;5060348;28;20571;-67
2021/08/25 12:34:08;;;;;;;4.38;1.80;;;23.10;51.10;;;;;;5058128;28;20036;-66
2021/08/25 12:36:38;;;;;;;5.68;1.92;;;23.10;51.10;;;;;;5064004;28;20131;-68
2021/08/25 12:39:12;;;;;;;3.38;2.05;;;23.10;51.00;;;;;;5046950;28;20040;-66
2021/08/25 12:41:42;;;;;;;2.83;1.70;;;23.10;51.00;;;;;;5054515;28;20139;-66
2021/08/25 12:44:10;;;;;;;1.65;1.42;;;23.00;50.90;;;;;;5059606;28;20050;-66
2021/08/25 12:46:53;;;;;;;1.73;1.55;;;23.00;51.00;;;;;;5059641;28;20132;-65
2021/08/25 12:49:22;;;;;;;2.70;1.60;;;23.00;51.10;;;;;;5054051;28;20127;-67
2021/08/25 12:51:50;;;;;;;3.45;2.33;;;23.00;51.20;;;;;;5047760;28;20053;-68
2021/08/25 12:54:18;;;;;;;4.20;1.90;;;23.00;51.40;;;;;;5064446;28;20047;-71
2021/08/25 12:56:45;;;;;;;2.85;1.75;;;23.00;51.30;;;;;;5056730;28;20493;-69
2021/08/25 12:59:13;;;;;;;2.40;1.67;;;23.00;51.20;;;;;;5051939;28;20080;-70